Time;durP1;ratioP1;P1;durP2;ratioP2;P2;SDS_P1;SDS_P2;PMS_P1;PMS_P2;Temp;Humidity;BMP_temperature;BMP_pressure;BME280_temperature;BME280_humidity;BME280_pressure;Samples;Min_cycle;Max_cycle;Signal;HPM_P1;HPM_P2
2022/04/23 00:00:33;;;;;;;12.43;9.73;;;10.30;99.90;;;;;;5073419;28;20177;-63
2022/04/23 00:02:59;;;;;;;15.10;9.47;;;10.30;99.90;;;;;;5073120;28;20206;-62
2022/04/23 00:05:25;;;;;;;11.67;10.03;;;10.30;99.90;;;;;;5074327;28;20235;-63
2022/04/23 00:07:51;;;;;;;11.80;10.03;;;10.30;99.90;;;;;;5074206;28;20244;-63
2022/04/23 00:10:16;;;;;;;12.07;10.03;;;10.20;99.90;;;;;;5074055;28;20189;-66
2022/04/23 00:12:46;;;;;;;15.93;11.27;;;10.20;99.90;;;;;;5073798;28;20200;-63
2022/04/23 00:15:12;;;;;;;13.87;10.60;;;10.20;99.90;;;;;;5074159;28;20653;-63
2022/04/23 00:17:37;;;;;;;14.47;10.67;;;10.20;99.90;;;;;;5074133;28;20178;-62
2022/04/23 00:20:05;;;;;;;12.57;10.73;;;10.20;99.90;;;;;;5074569;28;20680;-63
2022/04/23 00:22:31;;;;;;;15.23;11.03;;;10.10;99.90;;;;;;5074511;28;20193;-62
2022/04/23 00:24:57;;;;;;;13.17;11.30;;;10.10;99.90;;;;;;5072569;28;20181;-63
2022/04/23 00:27:23;;;;;;;14.00;10.90;;;10.10;99.90;;;;;;5073590;28;20240;-63
2022/04/23 00:29:49;;;;;;;13.20;10.40;;;10.10;99.90;;;;;;5074010;28;20209;-62
2022/04/23 00:32:14;;;;;;;14.87;11.60;;;10.10;99.90;;;;;;5073836;28;20243;-63
2022/04/23 00:34:40;;;;;;;14.77;12.10;;;10.00;99.90;;;;;;5073818;28;20178;-62
2022/04/23 00:37:06;;;;;;;18.40;13.83;;;10.00;99.90;;;;;;5072801;28;20185;-62
2022/04/23 00:39:32;;;;;;;15.60;12.53;;;10.00;99.90;;;;;;5073661;28;20182;-63
2022/04/23 00:42:00;;;;;;;18.67;14.30;;;10.00;99.90;;;;;;5073490;28;20193;-62
2022/04/23 00:44:26;;;;;;;19.37;15.10;;;10.10;99.90;;;;;;5073788;28;20189;-63
2022/04/23 00:46:52;;;;;;;23.00;16.43;;;10.00;99.90;;;;;;5073689;28;20197;-63
2022/04/23 00:49:17;;;;;;;20.50;15.17;;;10.00;99.90;;;;;;5073638;28;20169;-63
2022/04/23 00:51:43;;;;;;;23.10;16.20;;;10.00;99.90;;;;;;5073601;28;20194;-63
2022/04/23 00:54:10;;;;;;;25.40;17.87;;;10.00;99.90;;;;;;5074152;28;20189;-62
2022/04/23 00:56:38;;;;;;;22.80;17.40;;;10.00;99.90;;;;;;5072113;28;20188;-62
2022/04/23 00:59:09;;;;;;;27.43;19.43;;;10.00;99.90;;;;;;5072387;28;20192;-62
2022/04/23 01:01:36;;;;;;;27.77;19.67;;;9.90;99.90;;;;;;5073925;28;20193;-62
2022/04/23 01:04:02;;;;;;;26.97;19.93;;;10.00;99.90;;;;;;5073654;28;20609;-63
2022/04/23 01:06:33;;;;;;;27.50;20.10;;;9.90;99.90;;;;;;5072112;28;20202;-62
2022/04/23 01:09:03;;;;;;;25.37;19.77;;;10.00;99.90;;;;;;5072277;28;20666;-62
2022/04/23 01:11:29;;;;;;;26.33;19.63;;;9.90;99.90;;;;;;5073204;28;20217;-63
2022/04/23 01:13:56;;;;;;;29.57;21.13;;;9.80;99.90;;;;;;5073688;28;20182;-63
2022/04/23 01:16:22;;;;;;;28.60;21.53;;;9.80;99.90;;;;;;5073411;28;20228;-62
2022/04/23 01:18:47;;;;;;;33.63;23.87;;;9.80;99.90;;;;;;5073745;28;20655;-63
2022/04/23 01:21:13;;;;;;;30.87;21.80;;;9.70;99.90;;;;;;5073353;28;20280;-62
2022/04/23 01:23:43;;;;;;;30.77;21.93;;;9.70;99.90;;;;;;5073562;28;20181;-62
2022/04/23 01:26:10;;;;;;;30.40;23.43;;;9.70;99.90;;;;;;5073164;28;20541;-62
2022/04/23 01:28:37;;;;;;;35.00;24.50;;;9.70;99.90;;;;;;5073220;28;20173;-66
2022/04/23 01:31:04;;;;;;;35.03;23.63;;;9.70;99.90;;;;;;5073118;28;20204;-63
2022/04/23 01:33:32;;;;;;;32.53;25.33;;;9.70;99.90;;;;;;5073191;28;20169;-62
2022/04/23 01:35:58;;;;;;;37.17;26.03;;;9.70;99.90;;;;;;5073179;28;20182;-63
2022/04/23 01:38:24;;;;;;;35.97;25.53;;;9.70;99.90;;;;;;5073309;28;20196;-62
2022/04/23 01:40:49;;;;;;;33.50;25.43;;;9.70;99.90;;;;;;5073127;28;20257;-63
2022/04/23 01:43:15;;;;;;;36.07;25.67;;;9.70;99.90;;;;;;5073033;28;20181;-62
2022/04/23 01:45:41;;;;;;;36.87;26.07;;;9.70;99.90;;;;;;5071681;28;20178;-62
2022/04/23 01:48:06;;;;;;;35.90;25.87;;;9.80;99.90;;;;;;5075461;28;20249;-63
2022/04/23 01:50:32;;;;;;;38.50;27.03;;;9.80;99.90;;;;;;5077124;28;20209;-63
2022/04/23 01:52:58;;;;;;;36.93;27.00;;;9.80;99.90;;;;;;5076869;28;20254;-62
2022/04/23 01:55:24;;;;;;;36.03;26.00;;;9.80;99.90;;;;;;5077105;28;20704;-63
2022/04/23 01:57:50;;;;;;;35.10;25.60;;;9.80;99.90;;;;;;5076586;28;20224;-63
2022/04/23 02:00:16;;;;;;;35.10;26.13;;;9.80;99.90;;;;;;5075527;28;20667;-63
2022/04/23 02:02:42;;;;;;;36.93;24.80;;;9.80;99.90;;;;;;5076623;28;20557;-63
2022/04/23 02:05:09;;;;;;;36.67;27.03;;;9.90;99.90;;;;;;5075367;28;20582;-63
2022/04/23 02:07:38;;;;;;;37.40;27.30;;;9.90;99.90;;;;;;5076487;28;20646;-63
2022/04/23 02:10:06;;;;;;;35.80;25.80;;;10.00;99.90;;;;;;5076739;28;20190;-63
2022/04/23 02:12:33;;;;;;;34.10;26.03;;;10.00;99.90;;;;;;5076414;28;20608;-63
2022/04/23 02:14:59;;;;;;;36.77;26.30;;;10.10;99.90;;;;;;5076588;28;20178;-63
2022/04/23 02:17:39;;;;;;;34.27;25.50;;;10.10;99.90;;;;;;5077000;28;20240;-63
2022/04/23 02:20:07;;;;;;;35.60;25.23;;;10.20;99.90;;;;;;5077883;28;20580;-62
2022/04/23 02:22:33;;;;;;;34.27;24.67;;;10.20;99.90;;;;;;5077020;28;20287;-62
2022/04/23 02:24:59;;;;;;;35.70;26.10;;;10.20;99.90;;;;;;5076937;28;20672;-62
2022/04/23 02:27:25;;;;;;;31.50;25.20;;;10.20;99.90;;;;;;5076200;28;20208;-62
2022/04/23 02:29:52;;;;;;;33.70;25.30;;;10.20;99.90;;;;;;5075690;28;20174;-63
2022/04/23 02:32:17;;;;;;;36.20;26.63;;;10.10;99.90;;;;;;5076232;28;20197;-62
2022/04/23 02:34:43;;;;;;;33.97;24.43;;;10.10;99.90;;;;;;5076251;28;20691;-62
2022/04/23 02:37:09;;;;;;;36.03;26.17;;;10.10;99.90;;;;;;5076286;28;20219;-63
2022/04/23 02:39:35;;;;;;;33.70;25.33;;;10.10;99.90;;;;;;5076066;28;20193;-63
2022/04/23 02:42:01;;;;;;;33.97;26.17;;;10.10;99.90;;;;;;5076087;28;20205;-62
2022/04/23 02:44:28;;;;;;;32.07;24.53;;;10.10;99.90;;;;;;5076095;28;20285;-62
2022/04/23 02:46:53;;;;;;;31.23;24.40;;;10.10;99.90;;;;;;5076468;28;20198;-63
2022/04/23 02:49:19;;;;;;;33.57;24.93;;;10.20;99.90;;;;;;5076120;28;20215;-62
2022/04/23 02:51:45;;;;;;;32.67;24.80;;;10.20;99.90;;;;;;5075974;28;20197;-63
2022/04/23 02:54:12;;;;;;;36.47;26.33;;;10.20;99.90;;;;;;5075999;28;20174;-62
2022/04/23 02:56:38;;;;;;;36.50;25.77;;;10.20;99.90;;;;;;5075483;28;20205;-63
2022/04/23 02:59:06;;;;;;;33.60;26.10;;;10.20;99.90;;;;;;5075625;28;20210;-62
2022/04/23 03:01:34;;;;;;;33.63;24.60;;;10.20;99.90;;;;;;5075705;28;20289;-63
2022/04/23 03:04:00;;;;;;;34.97;25.57;;;10.20;99.90;;;;;;5074387;28;20182;-62
2022/04/23 03:06:30;;;;;;;33.67;25.80;;;10.10;99.90;;;;;;5075915;28;20610;-63
2022/04/23 03:08:56;;;;;;;36.40;26.63;;;10.10;99.90;;;;;;5075557;28;20584;-63
2022/04/23 03:11:23;;;;;;;33.23;25.23;;;10.00;99.90;;;;;;5075398;28;20216;-63
2022/04/23 03:13:48;;;;;;;34.10;26.27;;;10.00;99.90;;;;;;5074407;28;20177;-63
2022/04/23 03:16:14;;;;;;;34.53;26.23;;;9.90;99.90;;;;;;5074182;28;20699;-63
2022/04/23 03:18:40;;;;;;;35.63;25.83;;;9.90;99.90;;;;;;5075448;28;20186;-63
2022/04/23 03:21:06;;;;;;;36.77;26.80;;;9.90;99.90;;;;;;5074225;28;20222;-63
2022/04/23 03:23:32;;;;;;;36.63;27.50;;;10.00;99.90;;;;;;5075743;28;20267;-62
2022/04/23 03:25:59;;;;;;;38.50;27.27;;;10.00;99.90;;;;;;5075522;28;20182;-63
2022/04/23 03:28:25;;;;;;;38.73;27.13;;;10.00;99.90;;;;;;5074898;28;20598;-64
2022/04/23 03:30:51;;;;;;;38.67;27.37;;;10.10;99.90;;;;;;5075764;28;20190;-62
2022/04/23 03:33:17;;;;;;;37.60;27.20;;;10.10;99.90;;;;;;5075096;28;20219;-63
2022/04/23 03:35:42;;;;;;;38.50;27.23;;;10.10;99.90;;;;;;5075168;28;20627;-63
2022/04/23 03:38:08;;;;;;;37.43;28.20;;;10.10;99.90;;;;;;5073823;28;20193;-63
2022/04/23 03:40:34;;;;;;;37.87;27.73;;;10.10;99.90;;;;;;5075361;28;20177;-63
2022/04/23 03:42:59;;;;;;;35.53;26.10;;;10.20;99.90;;;;;;5074673;28;20279;-63
2022/04/23 03:45:25;;;;;;;34.77;26.93;;;10.20;99.90;;;;;;5075412;28;20645;-63
2022/04/23 03:47:51;;;;;;;37.07;27.90;;;10.20;99.90;;;;;;5074770;28;20198;-62
2022/04/23 03:50:17;;;;;;;38.30;29.17;;;10.30;99.90;;;;;;5074763;28;20603;-63
2022/04/23 03:52:43;;;;;;;35.50;26.93;;;10.30;99.90;;;;;;5074722;28;20196;-63
2022/04/23 03:55:11;;;;;;;35.60;27.40;;;10.30;99.90;;;;;;5074734;28;20170;-62
2022/04/23 03:57:48;;;;;;;40.73;28.60;;;10.30;99.90;;;;;;5073122;28;20538;-62
2022/04/23 04:00:15;;;;;;;38.57;27.63;;;10.30;99.90;;;;;;5074637;28;20176;-63
2022/04/23 04:02:42;;;;;;;37.37;28.53;;;10.30;99.90;;;;;;5075492;28;20198;-63
2022/04/23 04:05:09;;;;;;;39.17;29.10;;;10.30;99.90;;;;;;5075563;28;20174;-62
2022/04/23 04:07:34;;;;;;;41.57;30.53;;;10.30;99.90;;;;;;5075192;28;20674;-62
2022/04/23 04:10:01;;;;;;;35.30;26.87;;;10.30;99.90;;;;;;5074475;28;20200;-63
2022/04/23 04:12:27;;;;;;;37.27;27.43;;;10.20;99.90;;;;;;5074473;28;20206;-63
2022/04/23 04:14:53;;;;;;;35.80;27.77;;;10.20;99.90;;;;;;5074747;28;20257;-63
2022/04/23 04:17:19;;;;;;;38.17;28.70;;;10.20;99.90;;;;;;5074560;28;20265;-63
2022/04/23 04:19:45;;;;;;;38.10;28.77;;;10.20;99.90;;;;;;5074433;28;20178;-64
2022/04/23 04:22:10;;;;;;;39.77;29.57;;;10.20;99.90;;;;;;5074831;28;20202;-62
2022/04/23 04:24:37;;;;;;;40.10;30.43;;;10.10;99.90;;;;;;5074706;28;20173;-62
2022/04/23 04:27:04;;;;;;;38.33;28.47;;;10.10;99.90;;;;;;5073959;28;20200;-62
2022/04/23 04:29:31;;;;;;;38.13;27.83;;;10.10;99.90;;;;;;5074260;28;20194;-63
2022/04/23 04:31:57;;;;;;;41.77;29.87;;;10.10;99.90;;;;;;5073970;28;20268;-62
2022/04/23 04:34:24;;;;;;;41.37;29.93;;;10.10;99.90;;;;;;5074580;28;20642;-63
2022/04/23 04:36:51;;;;;;;36.47;27.97;;;10.10;99.90;;;;;;5073958;28;20218;-63
2022/04/23 04:39:18;;;;;;;39.17;28.50;;;10.10;99.90;;;;;;5073916;28;20587;-62
2022/04/23 04:41:46;;;;;;;38.10;28.90;;;10.00;99.90;;;;;;5073724;28;20215;-62
2022/04/23 04:44:12;;;;;;;35.27;27.93;;;10.00;99.90;;;;;;5072579;28;20173;-62
2022/04/23 04:46:38;;;;;;;36.20;27.67;;;10.00;99.90;;;;;;5073798;28;20685;-63
2022/04/23 04:49:05;;;;;;;36.37;27.27;;;10.00;99.90;;;;;;5073959;28;20220;-62
2022/04/23 04:51:31;;;;;;;37.33;28.53;;;9.90;99.90;;;;;;5072311;28;20205;-63
2022/04/23 04:53:57;;;;;;;39.83;29.67;;;9.90;99.90;;;;;;5072685;28;20261;-63
2022/04/23 04:56:23;;;;;;;37.97;28.77;;;9.90;99.90;;;;;;5073746;28;20253;-63
2022/04/23 04:58:49;;;;;;;39.77;29.23;;;9.90;99.90;;;;;;5073416;28;20173;-62
2022/04/23 05:01:16;;;;;;;39.97;29.13;;;9.90;99.90;;;;;;5072375;28;20261;-62
2022/04/23 05:03:43;;;;;;;42.37;29.40;;;10.00;99.90;;;;;;5073937;28;20522;-62
2022/04/23 05:06:09;;;;;;;37.80;28.60;;;10.00;99.90;;;;;;5072418;28;20205;-62
2022/04/23 05:08:36;;;;;;;41.40;28.93;;;10.10;99.90;;;;;;5072329;28;20178;-63
2022/04/23 05:11:03;;;;;;;41.70;30.50;;;10.20;99.90;;;;;;5073715;28;20190;-63
2022/04/23 05:13:29;;;;;;;41.77;29.80;;;10.20;99.90;;;;;;5073428;28;20174;-63
2022/04/23 05:15:55;;;;;;;39.47;30.03;;;10.30;99.90;;;;;;5073745;28;20181;-62
2022/04/23 05:18:21;;;;;;;39.80;29.07;;;10.40;99.90;;;;;;5073392;28;20173;-65
2022/04/23 05:20:47;;;;;;;37.30;29.43;;;10.50;99.90;;;;;;5073309;28;20531;-62
2022/04/23 05:23:13;;;;;;;42.50;30.10;;;10.50;99.90;;;;;;5077335;28;20173;-62
2022/04/23 05:25:39;;;;;;;36.60;27.27;;;10.60;99.90;;;;;;5077615;28;20169;-62
2022/04/23 05:28:05;;;;;;;37.80;29.63;;;10.70;99.90;;;;;;5076948;28;20196;-64
2022/04/23 05:30:30;;;;;;;41.70;29.23;;;10.80;99.90;;;;;;5077311;28;20250;-63
2022/04/23 05:32:56;;;;;;;38.83;29.17;;;10.80;99.90;;;;;;5077198;28;20225;-62
2022/04/23 05:35:22;;;;;;;37.57;28.17;;;10.80;99.90;;;;;;5075941;28;20176;-63
2022/04/23 05:37:47;;;;;;;37.57;29.00;;;10.80;99.90;;;;;;5077431;28;20182;-64
2022/04/23 05:40:13;;;;;;;39.77;29.40;;;10.80;99.90;;;;;;5077787;28;20594;-63
2022/04/23 05:42:39;;;;;;;36.63;29.07;;;10.80;99.90;;;;;;5076833;28;20204;-63
2022/04/23 05:45:05;;;;;;;38.23;29.90;;;10.80;99.90;;;;;;5076949;28;20178;-63
2022/04/23 05:47:31;;;;;;;39.47;29.90;;;10.80;99.90;;;;;;5077133;28;20534;-62
2022/04/23 05:49:56;;;;;;;41.17;31.20;;;10.90;99.90;;;;;;5077666;28;20177;-62
2022/04/23 05:52:22;;;;;;;41.03;30.20;;;10.90;99.90;;;;;;5076864;28;20186;-63
2022/04/23 05:54:48;;;;;;;41.90;29.97;;;10.90;99.90;;;;;;5076874;28;20173;-63
2022/04/23 05:57:15;;;;;;;39.07;29.93;;;10.90;99.90;;;;;;5076869;28;20174;-62
2022/04/23 05:59:41;;;;;;;39.30;30.67;;;10.90;99.90;;;;;;5076713;28;20174;-62
2022/04/23 06:02:07;;;;;;;37.17;29.40;;;11.00;99.90;;;;;;5076502;28;20247;-62
2022/04/23 06:04:33;;;;;;;41.03;29.53;;;11.10;99.90;;;;;;5076513;28;20178;-63
2022/04/23 06:06:59;;;;;;;39.30;30.17;;;11.10;99.90;;;;;;5075156;28;20224;-63
2022/04/23 06:09:24;;;;;;;38.83;29.07;;;11.20;99.90;;;;;;5076381;28;20185;-62
2022/04/23 06:11:50;;;;;;;36.27;27.90;;;11.30;99.90;;;;;;5076190;28;20216;-63
2022/04/23 06:14:16;;;;;;;39.23;29.77;;;11.40;99.90;;;;;;5075083;28;20206;-63
2022/04/23 06:16:42;;;;;;;38.63;28.47;;;11.50;99.90;;;;;;5076441;28;20263;-63
2022/04/23 06:19:08;;;;;;;39.70;29.73;;;11.60;99.90;;;;;;5076306;28;20223;-63
2022/04/23 06:21:33;;;;;;;38.80;30.87;;;11.70;99.90;;;;;;5076124;28;20198;-63
2022/04/23 06:23:59;;;;;;;38.33;29.40;;;11.70;99.90;;;;;;5076420;28;20257;-68
2022/04/23 06:26:25;;;;;;;39.83;29.50;;;11.80;99.90;;;;;;5076517;28;20571;-68
2022/04/23 06:28:51;;;;;;;39.43;30.40;;;11.80;99.90;;;;;;5076109;28;20537;-63
2022/04/23 06:31:17;;;;;;;38.17;29.17;;;11.90;99.90;;;;;;5076000;28;20190;-63
2022/04/23 06:33:43;;;;;;;42.00;30.87;;;12.00;99.90;;;;;;5075235;28;20170;-63
2022/04/23 06:36:13;;;;;;;40.43;30.03;;;12.10;99.90;;;;;;5076341;28;20170;-63
2022/04/23 06:38:39;;;;;;;36.20;28.83;;;12.20;99.90;;;;;;5074757;28;20177;-63
2022/04/23 06:41:04;;;;;;;37.93;28.13;;;12.20;99.90;;;;;;5075912;28;20606;-63
2022/04/23 06:43:30;;;;;;;36.50;28.60;;;12.40;99.90;;;;;;5074443;28;20678;-63
2022/04/23 06:45:56;;;;;;;34.70;27.75;;;12.40;99.90;;;;;;5075787;28;20170;-64
2022/04/23 06:48:21;;;;;;;36.33;28.40;;;12.50;99.90;;;;;;5076491;28;20231;-63
2022/04/23 06:50:47;;;;;;;40.30;30.38;;;12.60;99.90;;;;;;5075724;28;20205;-63
2022/04/23 06:53:13;;;;;;;34.55;27.67;;;12.60;99.90;;;;;;5075863;28;20695;-64
2022/04/23 06:55:38;;;;;;;38.03;28.15;;;12.70;99.90;;;;;;5075852;28;20170;-63
2022/04/23 06:58:04;;;;;;;35.17;27.73;;;12.80;99.90;;;;;;5075613;28;20184;-63
2022/04/23 07:00:30;;;;;;;38.05;28.25;;;12.90;99.90;;;;;;5076037;28;20182;-64
2022/04/23 07:02:56;;;;;;;36.95;27.85;;;12.90;99.90;;;;;;5075602;28;20190;-64
2022/04/23 07:05:21;;;;;;;37.55;29.17;;;13.00;99.90;;;;;;5075918;28;20181;-64
2022/04/23 07:07:58;;;;;;;37.15;26.45;;;13.00;99.90;;;;;;5075544;28;20280;-63
2022/04/23 07:10:26;;;;;;;39.08;28.83;;;13.10;99.90;;;;;;5074222;28;20196;-64
2022/04/23 07:12:53;;;;;;;35.25;26.65;;;13.20;99.90;;;;;;5074495;28;20197;-64
2022/04/23 07:15:22;;;;;;;40.65;28.85;;;13.20;99.90;;;;;;5076208;28;20165;-64
2022/04/23 07:17:49;;;;;;;40.72;30.05;;;13.30;99.90;;;;;;5076012;28;20178;-64
2022/04/23 07:20:16;;;;;;;36.38;27.40;;;13.40;99.90;;;;;;5074154;28;20188;-64
2022/04/23 07:24:02;;;;;;;36.08;27.05;;;13.40;99.90;;;;;;5074446;28;20201;-63
2022/04/23 07:25:29;;;;;;;35.78;26.60;;;13.50;99.90;;;;;;5075146;28;20213;-64
2022/04/23 07:27:55;;;;;;;36.97;28.35;;;13.50;99.90;;;;;;5075081;28;20232;-64
2022/04/23 07:30:21;;;;;;;34.10;26.40;;;13.60;99.90;;;;;;5075244;28;20170;-64
2022/04/23 07:32:46;;;;;;;27.92;21.05;;;13.70;99.90;;;;;;5075043;28;20604;-63
2022/04/23 07:37:56;;;;;;;30.15;22.67;;;13.90;99.90;;;;;;5075107;28;20306;-67
2022/04/23 07:40:22;;;;;;;25.83;18.65;;;14.00;99.90;;;;;;5073683;28;20199;-68
2022/04/23 07:42:48;;;;;;;26.25;19.30;;;14.10;99.90;;;;;;5074628;28;20638;-63
2022/04/23 07:45:14;;;;;;;22.65;17.95;;;14.20;99.90;;;;;;5074764;28;20181;-69
2022/04/23 07:47:40;;;;;;;23.23;17.80;;;14.20;99.90;;;;;;5074765;28;20636;-69
2022/04/23 07:50:06;;;;;;;21.58;16.20;;;14.30;99.90;;;;;;5074867;28;20174;-71
2022/04/23 07:52:35;;;;;;;26.85;18.42;;;14.30;99.90;;;;;;5075481;28;20194;-64
2022/04/23 07:55:00;;;;;;;25.77;18.98;;;14.40;99.90;;;;;;5073566;28;20177;-63
2022/04/23 07:57:26;;;;;;;22.85;17.85;;;14.30;99.90;;;;;;5074912;28;20181;-63
2022/04/23 07:59:52;;;;;;;26.98;19.10;;;14.40;99.90;;;;;;5074791;28;20184;-64
2022/04/23 08:02:18;;;;;;;23.33;18.13;;;14.50;99.90;;;;;;5074521;28;20274;-64
2022/04/23 08:04:45;;;;;;;26.70;18.00;;;14.60;99.90;;;;;;5073371;28;20235;-64
2022/04/23 08:07:11;;;;;;;33.88;23.67;;;14.80;99.90;;;;;;5073055;28;20198;-63
2022/04/23 08:09:39;;;;;;;32.88;24.48;;;14.90;99.90;;;;;;5074332;28;20181;-63
2022/04/23 08:12:09;;;;;;;29.50;22.25;;;15.00;99.90;;;;;;5074201;28;20217;-63
2022/04/23 08:14:35;;;;;;;33.03;25.05;;;15.00;99.90;;;;;;5074574;28;20162;-63
2022/04/23 08:17:01;;;;;;;34.42;25.75;;;15.10;99.90;;;;;;5074544;28;20583;-64
2022/04/23 08:19:27;;;;;;;34.00;26.08;;;15.20;99.90;;;;;;5072867;28;20170;-64
2022/04/23 08:21:53;;;;;;;33.53;25.02;;;15.40;99.90;;;;;;5074298;28;20200;-64
2022/04/23 08:24:19;;;;;;;30.85;23.55;;;16.00;99.90;;;;;;5072785;28;20177;-64
2022/04/23 08:26:45;;;;;;;33.55;23.90;;;17.00;99.90;;;;;;5073960;28;20665;-64
2022/04/23 08:31:55;;;;;;;18.27;15.52;;;18.60;99.90;;;;;;5074743;28;20566;-63
2022/04/23 08:34:21;;;;;;;22.58;16.55;;;18.80;99.90;;;;;;5074641;28;20170;-63
2022/04/23 08:36:49;;;;;;;19.70;15.85;;;19.10;99.90;;;;;;5074185;28;20178;-63
2022/04/23 08:39:16;;;;;;;20.55;15.77;;;19.70;99.90;;;;;;5074034;28;20189;-63
2022/04/23 08:41:47;;;;;;;19.25;13.95;;;20.00;99.90;;;;;;5074224;28;20193;-63
2022/04/23 08:44:13;;;;;;;17.95;14.65;;;20.30;99.90;;;;;;5074452;28;20162;-72
2022/04/23 08:46:40;;;;;;;18.00;15.13;;;20.60;99.90;;;;;;5074628;28;20272;-71
2022/04/23 08:49:13;;;;;;;19.10;14.55;;;20.70;99.90;;;;;;5072954;28;20653;-71
2022/04/23 08:51:41;;;;;;;20.70;15.95;;;20.90;99.90;;;;;;5072708;28;20194;-70
2022/04/23 08:54:10;;;;;;;19.98;15.50;;;20.90;99.90;;;;;;5073882;28;20166;-64
2022/04/23 08:56:38;;;;;;;19.42;15.90;;;21.30;99.90;;;;;;5073298;28;20180;-63
2022/04/23 08:59:06;;;;;;;17.67;15.10;;;21.20;99.90;;;;;;5073488;28;20173;-63
2022/04/23 09:01:33;;;;;;;16.27;13.40;;;21.00;99.90;;;;;;5072368;28;20190;-63
2022/04/23 09:04:01;;;;;;;16.58;13.93;;;20.40;99.90;;;;;;5073576;28;20173;-65
2022/04/23 09:06:44;;;;;;;20.90;15.07;;;19.90;99.90;;;;;;5073704;28;20200;-64
2022/04/23 09:09:17;;;;;;;16.63;13.55;;;19.50;99.90;;;;;;5071943;28;20203;-63
2022/04/23 09:11:50;;;;;;;18.85;14.98;;;19.10;99.90;;;;;;5073234;28;20221;-63
2022/04/23 09:14:29;;;;;;;16.85;13.52;;;19.00;99.90;;;;;;5073302;28;20232;-63
2022/04/23 09:25:14;;;;;;;17.38;14.02;;;18.30;99.90;;;;;;5073773;28;20308;-63
2022/04/23 09:27:43;;;;;;;18.30;14.65;;;18.50;99.90;;;;;;5072978;28;20201;-63
2022/04/23 09:30:10;;;;;;;17.88;14.35;;;18.50;99.90;;;;;;5073429;28;20162;-63
2022/04/23 09:32:36;;;;;;;18.02;13.20;;;18.50;99.90;;;;;;5073039;28;20194;-63
2022/04/23 09:35:10;;;;;;;15.13;12.70;;;18.70;99.90;;;;;;5073198;28;20223;-63
2022/04/23 09:40:22;;;;;;;17.13;12.73;;;18.90;99.90;;;;;;5073124;28;20173;-63
2022/04/23 09:43:11;;;;;;;17.60;14.18;;;18.80;99.90;;;;;;5072907;28;20291;-63
2022/04/23 09:45:44;;;;;;;16.38;13.38;;;18.70;99.90;;;;;;5073229;28;20709;-63
2022/04/23 09:48:14;;;;;;;19.20;15.27;;;18.40;99.90;;;;;;5073442;28;20181;-63
2022/04/23 09:50:41;;;;;;;21.17;14.98;;;18.20;99.90;;;;;;5072983;28;20170;-64
2022/04/23 09:53:18;;;;;;;20.17;14.75;;;18.20;99.90;;;;;;5072898;28;20185;-63
2022/04/23 09:55:45;;;;;;;23.27;16.35;;;18.10;99.90;;;;;;5071707;28;20518;-64
2022/04/23 09:58:12;;;;;;;21.35;15.90;;;18.00;99.90;;;;;;5073159;28;20232;-63
2022/04/23 10:00:47;;;;;;;19.67;15.50;;;18.20;99.90;;;;;;5073105;28;20264;-63
2022/04/23 10:03:13;;;;;;;21.63;16.63;;;18.30;99.90;;;;;;5074127;28;20206;-63
2022/04/23 10:05:49;;;;;;;21.13;15.65;;;18.50;99.90;;;;;;5071983;28;20597;-63
2022/04/23 10:08:16;;;;;;;21.70;16.65;;;18.60;99.90;;;;;;5072707;28;20201;-63
2022/04/23 10:10:55;;;;;;;21.25;17.00;;;18.90;99.90;;;;;;5076838;28;20269;-63
2022/04/23 10:13:25;;;;;;;19.27;15.57;;;18.90;99.90;;;;;;5075117;28;20186;-63
2022/04/23 10:15:54;;;;;;;22.48;17.85;;;18.80;99.90;;;;;;5076673;28;20248;-63
2022/04/23 10:18:20;;;;;;;22.90;16.38;;;18.30;99.90;;;;;;5075257;28;20185;-63
2022/04/23 10:20:55;;;;;;;21.13;16.15;;;17.90;99.90;;;;;;5076478;28;20223;-63
2022/04/23 10:23:59;;;;;;;23.77;17.67;;;18.10;99.90;;;;;;5076839;28;20525;-63
2022/04/23 10:26:49;;;;;;;20.65;15.93;;;18.20;99.90;;;;;;5075964;28;20205;-63
2022/04/23 10:29:20;;;;;;;22.27;16.48;;;18.50;99.90;;;;;;5076229;28;20522;-63
2022/04/23 10:32:09;;;;;;;22.15;16.52;;;18.90;99.90;;;;;;5074931;28;20193;-63
2022/04/23 10:34:35;;;;;;;23.83;18.15;;;19.20;99.90;;;;;;5076091;28;20299;-63
2022/04/23 10:37:20;;;;;;;24.25;17.45;;;18.90;99.90;;;;;;5076196;28;20181;-63
2022/04/23 10:40:06;;;;;;;25.60;17.80;;;18.60;99.90;;;;;;5076070;28;20215;-63
2022/04/23 10:42:32;;;;;;;25.30;18.13;;;18.70;99.90;;;;;;5076304;28;20563;-63
2022/04/23 10:45:06;;;;;;;25.05;17.85;;;18.60;99.90;;;;;;5076033;28;20177;-63
2022/04/23 10:47:39;;;;;;;24.23;17.08;;;18.60;99.90;;;;;;5076274;28;20178;-63
2022/04/23 10:50:15;;;;;;;22.98;16.67;;;18.90;99.90;;;;;;5076715;28;20526;-63
2022/04/23 10:52:41;;;;;;;23.92;18.15;;;19.30;99.90;;;;;;5075745;28;20193;-63
2022/04/23 10:55:08;;;;;;;21.90;16.63;;;19.50;99.90;;;;;;5076220;28;20497;-63
2022/04/23 10:57:34;;;;;;;24.90;18.48;;;19.90;99.90;;;;;;5075171;28;20181;-63
2022/04/23 11:00:17;;;;;;;26.23;18.17;;;19.90;99.90;;;;;;5075526;28;20191;-63
2022/04/23 11:03:10;;;;;;;25.58;17.45;;;19.50;99.90;;;;;;5075816;28;20224;-63
2022/04/23 11:14:37;;;;;;;27.45;19.05;;;18.60;99.90;;;;;;5075334;28;20157;-63
2022/04/23 11:17:03;;;;;;;28.52;19.25;;;18.80;99.90;;;;;;5076323;28;20488;-63
2022/04/23 11:19:30;;;;;;;25.92;19.67;;;18.80;99.90;;;;;;5075468;28;20180;-63
2022/04/23 11:21:56;;;;;;;24.52;18.58;;;18.80;99.90;;;;;;5074243;28;20194;-63
2022/04/23 11:24:24;;;;;;;25.88;19.08;;;18.80;99.90;;;;;;5075876;28;20184;-63
2022/04/23 11:26:51;;;;;;;25.67;18.80;;;18.80;99.90;;;;;;5075607;28;20186;-63
2022/04/23 11:29:17;;;;;;;25.88;19.25;;;19.10;99.90;;;;;;5075066;28;20169;-63
2022/04/23 11:31:53;;;;;;;25.73;19.08;;;19.20;99.90;;;;;;5073797;28;20223;-63
2022/04/23 11:34:19;;;;;;;24.25;17.63;;;19.00;99.90;;;;;;5073775;28;20177;-63
2022/04/23 11:36:45;;;;;;;25.08;18.20;;;19.20;99.90;;;;;;5073771;28;20181;-64
2022/04/23 11:39:13;;;;;;;22.42;16.50;;;19.40;99.90;;;;;;5073607;28;20189;-64
2022/04/23 11:41:43;;;;;;;24.98;17.00;;;19.30;99.90;;;;;;5075460;28;20203;-63
2022/04/23 11:44:15;;;;;;;20.13;15.65;;;19.10;99.90;;;;;;5073411;28;20185;-64
2022/04/23 11:46:51;;;;;;;23.38;16.08;;;19.00;99.90;;;;;;5074630;28;20201;-64
2022/04/23 11:49:29;;;;;;;22.10;16.52;;;18.90;99.90;;;;;;5075229;28;20157;-64
2022/04/23 11:52:08;;;;;;;20.10;15.00;;;18.90;99.90;;;;;;5074701;28;20185;-64
2022/04/23 11:54:35;;;;;;;22.00;16.02;;;19.00;99.90;;;;;;5074883;28;20535;-63
2022/04/23 11:57:01;;;;;;;21.83;15.90;;;19.10;99.90;;;;;;5073336;28;20193;-64
2022/04/23 11:59:36;;;;;;;25.98;15.93;;;19.50;99.90;;;;;;5074405;28;20178;-63
2022/04/23 12:02:04;;;;;;;22.15;15.70;;;20.20;99.90;;;;;;5074997;28;20263;-64
2022/04/23 12:04:43;;;;;;;21.15;15.75;;;20.30;99.90;;;;;;5074551;28;20174;-63
2022/04/23 12:07:10;;;;;;;21.58;15.75;;;19.90;99.90;;;;;;5074841;28;20202;-62
2022/04/23 12:09:54;;;;;;;19.80;15.43;;;19.50;99.90;;;;;;5074760;28;20343;-71
2022/04/23 12:12:31;;;;;;;20.38;15.55;;;19.00;99.90;;;;;;5073697;28;20201;-71
2022/04/23 12:14:58;;;;;;;20.02;15.32;;;18.70;99.90;;;;;;5073235;28;20214;-71
2022/04/23 12:17:29;;;;;;;20.23;14.90;;;18.50;99.90;;;;;;5073675;28;20177;-71
2022/04/23 12:19:57;;;;;;;20.63;15.43;;;18.80;99.90;;;;;;5075028;28;20154;-71
2022/04/23 12:22:26;;;;;;;18.95;14.15;;;19.00;99.90;;;;;;5074424;28;20205;-71
2022/04/23 12:25:18;;;;;;;18.35;14.70;;;19.10;99.90;;;;;;5073024;28;20177;-71
2022/04/23 12:28:00;;;;;;;17.85;13.85;;;19.10;99.90;;;;;;5073198;28;20200;-71
2022/04/23 12:41:39;;;;;;;18.20;14.02;;;19.10;99.90;;;;;;5073822;28;20201;-63
2022/04/23 12:44:18;;;;;;;19.25;14.57;;;18.70;99.90;;;;;;5073655;28;20169;-65
2022/04/23 12:47:02;;;;;;;18.85;12.88;;;18.30;99.90;;;;;;5073982;28;20201;-63
2022/04/23 12:49:50;;;;;;;14.32;12.07;;;18.10;99.90;;;;;;5073963;28;20178;-63
2022/04/23 12:52:27;;;;;;;17.55;13.38;;;17.90;99.90;;;;;;5072616;28;20613;-63
2022/04/23 12:55:28;;;;;;;17.77;14.32;;;17.80;99.90;;;;;;5074093;28;20154;-63
2022/04/23 12:58:04;;;;;;;14.77;12.73;;;17.80;99.90;;;;;;5074349;28;20602;-63
2022/04/23 13:00:38;;;;;;;17.17;12.93;;;17.80;99.90;;;;;;5073766;28;20181;-63
2022/04/23 13:03:50;;;;;;;15.15;12.18;;;18.00;99.90;;;;;;5072398;28;20618;-63
2022/04/23 13:08:54;;;;;;;15.00;10.70;;;18.50;99.90;;;;;;5073747;28;20184;-64
2022/04/23 13:11:27;;;;;;;13.40;10.68;;;18.90;99.90;;;;;;5072858;28;20219;-63
2022/04/23 13:14:01;;;;;;;14.73;11.60;;;19.70;99.90;;;;;;5073632;28;20741;-63